sensor_id;sensor_type;location;lat;lon;timestamp;pressure;altitude;pressure_sealevel;temperature;humidity
40872;BME280;26591;43.264;26.940;2022-07-09T00:00:41;98585.84;;;23.08;49.76
40872;BME280;26591;43.264;26.940;2022-07-09T00:06:20;98587.75;;;23.12;50.00
40872;BME280;26591;43.264;26.940;2022-07-09T00:11:11;98579.63;;;23.07;49.81
40872;BME280;26591;43.264;26.940;2022-07-09T00:13:36;98575.34;;;23.11;49.25
40872;BME280;26591;43.264;26.940;2022-07-09T00:16:02;98588.00;;;23.06;50.34
40872;BME280;26591;43.264;26.940;2022-07-09T00:18:28;98577.88;;;22.91;50.69
40872;BME280;26591;43.264;26.940;2022-07-09T00:20:54;98579.28;;;22.98;49.84
40872;BME280;26591;43.264;26.940;2022-07-09T00:23:20;98582.28;;;23.02;49.73
40872;BME280;26591;43.264;26.940;2022-07-09T00:25:46;98578.78;;;23.01;50.37
40872;BME280;26591;43.264;26.940;2022-07-09T00:28:12;98573.00;;;22.88;50.84
40872;BME280;26591;43.264;26.940;2022-07-09T00:30:37;98580.69;;;23.01;50.19
40872;BME280;26591;43.264;26.940;2022-07-09T00:33:03;98576.88;;;23.02;50.36
40872;BME280;26591;43.264;26.940;2022-07-09T00:35:29;98576.88;;;23.02;50.67
40872;BME280;26591;43.264;26.940;2022-07-09T00:37:54;98572.53;;;22.96;50.41
40872;BME280;26591;43.264;26.940;2022-07-09T00:40:20;98586.25;;;22.94;50.41
40872;BME280;26591;43.264;26.940;2022-07-09T00:42:45;98586.38;;;23.10;50.13
40872;BME280;26591;43.264;26.940;2022-07-09T00:45:11;98580.06;;;22.94;50.65
40872;BME280;26591;43.264;26.940;2022-07-09T00:47:37;98585.06;;;22.80;50.95
40872;BME280;26591;43.264;26.940;2022-07-09T00:50:03;98581.41;;;22.91;50.58
40872;BME280;26591;43.264;26.940;2022-07-09T00:52:29;98589.13;;;22.77;50.95
40872;BME280;26591;43.264;26.940;2022-07-09T00:54:59;98586.38;;;22.72;51.07
40872;BME280;26591;43.264;26.940;2022-07-09T00:57:25;98588.56;;;22.75;51.22
40872;BME280;26591;43.264;26.940;2022-07-09T00:59:51;98591.56;;;22.79;51.00
40872;BME280;26591;43.264;26.940;2022-07-09T01:02:18;98583.16;;;22.75;50.65
40872;BME280;26591;43.264;26.940;2022-07-09T01:04:44;98588.28;;;22.44;51.14
40872;BME280;26591;43.264;26.940;2022-07-09T01:07:12;98580.88;;;22.57;51.33
40872;BME280;26591;43.264;26.940;2022-07-09T01:09:37;98584.84;;;22.49;50.15
40872;BME280;26591;43.264;26.940;2022-07-09T01:12:04;98580.25;;;22.49;49.64
40872;BME280;26591;43.264;26.940;2022-07-09T01:14:30;98583.88;;;22.38;48.74
40872;BME280;26591;43.264;26.940;2022-07-09T01:17:00;98581.59;;;22.47;48.48
40872;BME280;26591;43.264;26.940;2022-07-09T01:19:27;98589.38;;;22.21;48.56
40872;BME280;26591;43.264;26.940;2022-07-09T01:21:53;98585.69;;;22.05;48.46
40872;BME280;26591;43.264;26.940;2022-07-09T01:24:19;98577.88;;;22.03;48.86
40872;BME280;26591;43.264;26.940;2022-07-09T01:26:45;98579.19;;;22.01;47.98
40872;BME280;26591;43.264;26.940;2022-07-09T01:29:11;98581.28;;;21.93;48.10
40872;BME280;26591;43.264;26.940;2022-07-09T01:31:36;98574.56;;;21.74;48.39
40872;BME280;26591;43.264;26.940;2022-07-09T01:34:02;98565.91;;;21.94;48.35
40872;BME280;26591;43.264;26.940;2022-07-09T01:36:28;98577.53;;;21.72;49.02
40872;BME280;26591;43.264;26.940;2022-07-09T01:39:11;98571.75;;;21.86;48.58
40872;BME280;26591;43.264;26.940;2022-07-09T01:41:37;98572.06;;;21.89;48.11
40872;BME280;26591;43.264;26.940;2022-07-09T01:44:02;98569.94;;;21.69;48.43
40872;BME280;26591;43.264;26.940;2022-07-09T01:46:28;98568.31;;;21.68;49.10
40872;BME280;26591;43.264;26.940;2022-07-09T01:48:53;98565.03;;;21.66;48.69
40872;BME280;26591;43.264;26.940;2022-07-09T01:51:19;98563.19;;;21.49;49.60
40872;BME280;26591;43.264;26.940;2022-07-09T01:53:47;98569.22;;;21.57;49.52
40872;BME280;26591;43.264;26.940;2022-07-09T01:56:12;98574.53;;;21.52;49.49
40872;BME280;26591;43.264;26.940;2022-07-09T01:58:38;98574.53;;;21.52;49.75
40872;BME280;26591;43.264;26.940;2022-07-09T02:01:04;98569.41;;;21.50;50.03
40872;BME280;26591;43.264;26.940;2022-07-09T02:03:29;98576.13;;;21.30;50.57
40872;BME280;26591;43.264;26.940;2022-07-09T02:05:55;98578.72;;;21.42;50.23
40872;BME280;26591;43.264;26.940;2022-07-09T02:08:22;98579.09;;;21.29;50.75
40872;BME280;26591;43.264;26.940;2022-07-09T02:10:48;98573.69;;;21.29;50.64
40872;BME280;26591;43.264;26.940;2022-07-09T02:13:14;98575.00;;;21.26;50.80
40872;BME280;26591;43.264;26.940;2022-07-09T02:15:39;98568.28;;;21.07;51.10
40872;BME280;26591;43.264;26.940;2022-07-09T02:18:05;98578.78;;;21.08;51.06
40872;BME280;26591;43.264;26.940;2022-07-09T02:20:31;98584.81;;;21.15;50.91
40872;BME280;26591;43.264;26.940;2022-07-09T02:22:57;98582.78;;;21.06;50.90
40872;BME280;26591;43.264;26.940;2022-07-09T02:25:23;98576.81;;;21.03;50.88
40872;BME280;26591;43.264;26.940;2022-07-09T02:27:48;98584.06;;;21.03;51.14
40872;BME280;26591;43.264;26.940;2022-07-09T02:30:14;98591.56;;;21.18;50.82
40872;BME280;26591;43.264;26.940;2022-07-09T02:32:40;98587.84;;;21.02;51.06
40872;BME280;26591;43.264;26.940;2022-07-09T02:35:07;98595.59;;;20.81;51.64
40872;BME280;26591;43.264;26.940;2022-07-09T02:37:33;98595.31;;;20.83;51.80
40872;BME280;26591;43.264;26.940;2022-07-09T02:39:59;98590.59;;;21.07;50.91
40872;BME280;26591;43.264;26.940;2022-07-09T02:42:25;98585.97;;;20.85;51.22
40872;BME280;26591;43.264;26.940;2022-07-09T02:44:50;98595.09;;;20.84;51.79
40872;BME280;26591;43.264;26.940;2022-07-09T02:47:16;98602.59;;;20.82;51.52
40872;BME280;26591;43.264;26.940;2022-07-09T02:49:41;98585.78;;;20.75;51.71
40872;BME280;26591;43.264;26.940;2022-07-09T02:52:07;98600.94;;;20.64;51.95
40872;BME280;26591;43.264;26.940;2022-07-09T02:54:32;98596.88;;;20.96;51.44
40872;BME280;26591;43.264;26.940;2022-07-09T02:56:59;98603.31;;;21.12;51.13
40872;BME280;26591;43.264;26.940;2022-07-09T02:59:25;98607.66;;;20.79;51.54
40872;BME280;26591;43.264;26.940;2022-07-09T03:01:51;98612.28;;;20.83;51.79
40872;BME280;26591;43.264;26.940;2022-07-09T03:04:16;98608.94;;;20.76;51.73
40872;BME280;26591;43.264;26.940;2022-07-09T03:06:44;98602.44;;;20.89;51.65
40872;BME280;26591;43.264;26.940;2022-07-09T03:09:10;98596.78;;;20.91;51.78
40872;BME280;26591;43.264;26.940;2022-07-09T03:11:36;98605.13;;;20.89;51.60
40872;BME280;26591;43.264;26.940;2022-07-09T03:14:01;98598.19;;;20.93;51.76
40872;BME280;26591;43.264;26.940;2022-07-09T03:16:27;98609.25;;;21.31;51.01
40872;BME280;26591;43.264;26.940;2022-07-09T03:18:52;98599.28;;;21.31;50.80
40872;BME280;26591;43.264;26.940;2022-07-09T03:21:18;98605.88;;;21.41;50.88
40872;BME280;26591;43.264;26.940;2022-07-09T03:23:43;98607.84;;;21.28;50.89
40872;BME280;26591;43.264;26.940;2022-07-09T03:26:09;98609.31;;;21.36;51.01
40872;BME280;26591;43.264;26.940;2022-07-09T03:28:35;98606.78;;;21.46;50.74
40872;BME280;26591;43.264;26.940;2022-07-09T03:31:01;98602.03;;;21.54;50.81
40872;BME280;26591;43.264;26.940;2022-07-09T03:33:27;98607.00;;;21.45;51.15
40872;BME280;26591;43.264;26.940;2022-07-09T03:35:54;98600.63;;;21.29;51.43
40872;BME280;26591;43.264;26.940;2022-07-09T03:38:21;98599.63;;;21.18;51.77
40872;BME280;26591;43.264;26.940;2022-07-09T03:40:46;98607.53;;;21.25;51.64
40872;BME280;26591;43.264;26.940;2022-07-09T03:43:12;98612.66;;;21.26;51.62
40872;BME280;26591;43.264;26.940;2022-07-09T03:45:38;98616.94;;;21.22;51.94
40872;BME280;26591;43.264;26.940;2022-07-09T03:48:04;98620.72;;;21.43;51.59
40872;BME280;26591;43.264;26.940;2022-07-09T03:50:29;98618.63;;;21.45;50.89
40872;BME280;26591;43.264;26.940;2022-07-09T03:52:55;98620.97;;;21.42;51.45
40872;BME280;26591;43.264;26.940;2022-07-09T03:55:20;98620.16;;;21.41;51.26
40872;BME280;26591;43.264;26.940;2022-07-09T03:57:46;98619.19;;;21.30;51.63
40872;BME280;26591;43.264;26.940;2022-07-09T04:00:12;98626.34;;;21.42;51.36
40872;BME280;26591;43.264;26.940;2022-07-09T04:02:38;98626.69;;;21.45;51.58
40872;BME280;26591;43.264;26.940;2022-07-09T04:05:04;98627.66;;;21.39;51.88
40872;BME280;26591;43.264;26.940;2022-07-09T04:07:29;98630.72;;;21.65;51.11
40872;BME280;26591;43.264;26.940;2022-07-09T04:09:55;98634.41;;;21.59;51.75
40872;BME280;26591;43.264;26.940;2022-07-09T04:12:21;98634.06;;;21.72;51.51
40872;BME280;26591;43.264;26.940;2022-07-09T04:14:47;98638.31;;;21.68;51.37
40872;BME280;26591;43.264;26.940;2022-07-09T04:17:12;98643.72;;;21.90;51.86
40872;BME280;26591;43.264;26.940;2022-07-09T04:19:38;98639.41;;;21.89;51.71
40872;BME280;26591;43.264;26.940;2022-07-09T04:22:04;98638.97;;;21.98;50.48
40872;BME280;26591;43.264;26.940;2022-07-09T04:24:33;98634.13;;;22.00;50.83
40872;BME280;26591;43.264;26.940;2022-07-09T04:26:58;98631.25;;;22.06;51.71
40872;BME280;26591;43.264;26.940;2022-07-09T04:29:24;98629.28;;;21.97;50.71
40872;BME280;26591;43.264;26.940;2022-07-09T04:31:49;98628.13;;;22.15;50.76
40872;BME280;26591;43.264;26.940;2022-07-09T04:34:21;98628.22;;;22.25;50.27
40872;BME280;26591;43.264;26.940;2022-07-09T04:36:46;98634.47;;;22.31;50.64
40872;BME280;26591;43.264;26.940;2022-07-09T04:39:12;98642.56;;;22.31;51.12
40872;BME280;26591;43.264;26.940;2022-07-09T04:41:38;98633.97;;;22.34;50.57
40872;BME280;26591;43.264;26.940;2022-07-09T04:44:03;98631.41;;;22.22;51.38
40872;BME280;26591;43.264;26.940;2022-07-09T04:46:29;98625.91;;;22.34;50.19
40872;BME280;26591;43.264;26.940;2022-07-09T04:48:56;98631.41;;;22.44;50.78
40872;BME280;26591;43.264;26.940;2022-07-09T04:51:22;98630.50;;;22.61;49.98
40872;BME280;26591;43.264;26.940;2022-07-09T04:53:47;98632.84;;;22.79;50.25
40872;BME280;26591;43.264;26.940;2022-07-09T04:56:13;98634.25;;;22.87;50.14
40872;BME280;26591;43.264;26.940;2022-07-09T04:58:39;98641.28;;;23.21;49.55
40872;BME280;26591;43.264;26.940;2022-07-09T05:01:18;98640.22;;;23.65;49.78
40872;BME280;26591;43.264;26.940;2022-07-09T05:03:43;98636.44;;;23.71;47.94
40872;BME280;26591;43.264;26.940;2022-07-09T05:06:09;98645.66;;;24.38;47.97
40872;BME280;26591;43.264;26.940;2022-07-09T05:08:35;98636.28;;;25.13;46.01
40872;BME280;26591;43.264;26.940;2022-07-09T05:11:01;98635.06;;;25.87;44.49
40872;BME280;26591;43.264;26.940;2022-07-09T05:13:27;98650.69;;;26.61;43.69
40872;BME280;26591;43.264;26.940;2022-07-09T05:15:52;98644.41;;;27.64;41.11
40872;BME280;26591;43.264;26.940;2022-07-09T05:18:18;98644.06;;;27.95;40.71
40872;BME280;26591;43.264;26.940;2022-07-09T05:20:43;98650.03;;;28.41;40.04
40872;BME280;26591;43.264;26.940;2022-07-09T05:23:09;98646.25;;;28.37;39.64
40872;BME280;26591;43.264;26.940;2022-07-09T05:25:35;98649.94;;;28.46;39.84
40872;BME280;26591;43.264;26.940;2022-07-09T05:28:00;98648.69;;;28.57;39.56
40872;BME280;26591;43.264;26.940;2022-07-09T05:30:26;98650.59;;;28.38;39.72
40872;BME280;26591;43.264;26.940;2022-07-09T05:32:51;98650.44;;;28.10;39.94
40872;BME280;26591;43.264;26.940;2022-07-09T05:35:17;98650.53;;;27.51;40.70
40872;BME280;26591;43.264;26.940;2022-07-09T05:37:43;98652.22;;;26.83;41.60
40872;BME280;26591;43.264;26.940;2022-07-09T05:40:10;98652.13;;;26.48;42.93
40872;BME280;26591;43.264;26.940;2022-07-09T05:42:36;98644.06;;;26.32;42.40
40872;BME280;26591;43.264;26.940;2022-07-09T05:45:02;98641.34;;;26.32;42.99
40872;BME280;26591;43.264;26.940;2022-07-09T05:47:27;98642.94;;;26.44;42.99
40872;BME280;26591;43.264;26.940;2022-07-09T05:49:53;98644.03;;;25.67;44.89
40872;BME280;26591;43.264;26.940;2022-07-09T05:52:18;98646.00;;;26.32;43.53
40872;BME280;26591;43.264;26.940;2022-07-09T05:54:44;98649.13;;;26.94;43.45
40872;BME280;26591;43.264;26.940;2022-07-09T05:57:09;98639.84;;;27.60;42.20
40872;BME280;26591;43.264;26.940;2022-07-09T05:59:35;98641.56;;;27.75;41.15
40872;BME280;26591;43.264;26.940;2022-07-09T06:02:00;98632.66;;;27.93;41.11
40872;BME280;26591;43.264;26.940;2022-07-09T06:04:28;98633.81;;;28.11;41.12
40872;BME280;26591;43.264;26.940;2022-07-09T06:06:54;98634.94;;;28.68;40.06
40872;BME280;26591;43.264;26.940;2022-07-09T06:09:19;98628.63;;;29.66;39.03
40872;BME280;26591;43.264;26.940;2022-07-09T06:11:45;98634.69;;;29.63;38.49
40872;BME280;26591;43.264;26.940;2022-07-09T06:14:10;98630.16;;;29.59;38.58
40872;BME280;26591;43.264;26.940;2022-07-09T06:16:36;98637.56;;;29.25;38.92
40872;BME280;26591;43.264;26.940;2022-07-09T06:19:02;98622.88;;;29.40;39.61
40872;BME280;26591;43.264;26.940;2022-07-09T06:21:27;98624.56;;;29.64;39.21
40872;BME280;26591;43.264;26.940;2022-07-09T06:23:53;98620.25;;;30.05;38.91
40872;BME280;26591;43.264;26.940;2022-07-09T06:26:18;98620.09;;;29.26;39.68
40872;BME280;26591;43.264;26.940;2022-07-09T06:28:44;98627.44;;;29.12;40.20
40872;BME280;26591;43.264;26.940;2022-07-09T06:31:10;98625.19;;;29.47;40.42
40872;BME280;26591;43.264;26.940;2022-07-09T06:33:35;98628.28;;;29.26;39.80
40872;BME280;26591;43.264;26.940;2022-07-09T06:36:01;98624.38;;;28.99;39.84
40872;BME280;26591;43.264;26.940;2022-07-09T06:38:29;98617.81;;;28.05;41.59
40872;BME280;26591;43.264;26.940;2022-07-09T06:40:55;98615.13;;;27.32;42.96
40872;BME280;26591;43.264;26.940;2022-07-09T06:43:22;98616.28;;;26.56;44.55
40872;BME280;26591;43.264;26.940;2022-07-09T06:45:47;98602.47;;;26.53;44.64
40872;BME280;26591;43.264;26.940;2022-07-09T06:48:13;98606.00;;;26.48;45.00
40872;BME280;26591;43.264;26.940;2022-07-09T06:50:38;98602.44;;;26.92;44.18
40872;BME280;26591;43.264;26.940;2022-07-09T06:53:04;98606.09;;;26.72;43.92
40872;BME280;26591;43.264;26.940;2022-07-09T06:55:30;98611.09;;;26.94;44.03
40872;BME280;26591;43.264;26.940;2022-07-09T06:57:56;98608.16;;;27.50;43.52
40872;BME280;26591;43.264;26.940;2022-07-09T07:00:23;98604.03;;;27.77;42.15
40872;BME280;26591;43.264;26.940;2022-07-09T07:02:49;98607.03;;;27.99;42.07
40872;BME280;26591;43.264;26.940;2022-07-09T07:05:15;98607.00;;;28.43;41.49
40872;BME280;26591;43.264;26.940;2022-07-09T07:07:41;98605.47;;;27.93;41.71
40872;BME280;26591;43.264;26.940;2022-07-09T07:10:25;98601.50;;;27.61;42.31
40872;BME280;26591;43.264;26.940;2022-07-09T07:12:51;98611.53;;;27.36;42.92
40872;BME280;26591;43.264;26.940;2022-07-09T07:15:16;98610.22;;;27.58;42.57
40872;BME280;26591;43.264;26.940;2022-07-09T07:17:42;98610.75;;;27.84;42.86
40872;BME280;26591;43.264;26.940;2022-07-09T07:20:08;98612.78;;;27.74;42.71
40872;BME280;26591;43.264;26.940;2022-07-09T07:22:37;98609.63;;;28.10;41.63
40872;BME280;26591;43.264;26.940;2022-07-09T07:25:03;98609.66;;;27.61;42.28
40872;BME280;26591;43.264;26.940;2022-07-09T07:27:28;98616.97;;;27.07;43.15
40872;BME280;26591;43.264;26.940;2022-07-09T07:29:54;98618.78;;;27.17;42.40
40872;BME280;26591;43.264;26.940;2022-07-09T07:32:19;98607.69;;;27.13;43.02
40872;BME280;26591;43.264;26.940;2022-07-09T07:34:45;98616.44;;;27.34;42.56
40872;BME280;26591;43.264;26.940;2022-07-09T07:37:10;98608.59;;;27.03;42.64
40872;BME280;26591;43.264;26.940;2022-07-09T07:39:36;98614.47;;;27.40;42.73
40872;BME280;26591;43.264;26.940;2022-07-09T07:42:02;98627.81;;;27.66;41.99
40872;BME280;26591;43.264;26.940;2022-07-09T07:44:27;98612.75;;;27.98;41.64
40872;BME280;26591;43.264;26.940;2022-07-09T07:46:54;98627.22;;;27.69;41.69
40872;BME280;26591;43.264;26.940;2022-07-09T07:49:20;98613.03;;;27.77;41.65
40872;BME280;26591;43.264;26.940;2022-07-09T07:51:45;98622.03;;;27.48;41.93
40872;BME280;26591;43.264;26.940;2022-07-09T07:54:11;98616.75;;;27.81;41.70
40872;BME280;26591;43.264;26.940;2022-07-09T07:56:36;98626.41;;;28.36;41.06
40872;BME280;26591;43.264;26.940;2022-07-09T07:59:04;98612.69;;;28.60;40.41
40872;BME280;26591;43.264;26.940;2022-07-09T08:01:39;98623.31;;;28.62;40.01
40872;BME280;26591;43.264;26.940;2022-07-09T08:04:04;98614.03;;;28.82;39.87
40872;BME280;26591;43.264;26.940;2022-07-09T08:06:30;98613.47;;;28.28;40.46
40872;BME280;26591;43.264;26.940;2022-07-09T08:08:55;98611.84;;;28.27;40.68
40872;BME280;26591;43.264;26.940;2022-07-09T08:11:21;98618.09;;;28.27;40.49
40872;BME280;26591;43.264;26.940;2022-07-09T08:13:47;98610.97;;;28.51;39.83
40872;BME280;26591;43.264;26.940;2022-07-09T08:16:12;98619.28;;;28.21;40.17
40872;BME280;26591;43.264;26.940;2022-07-09T08:18:38;98619.44;;;28.06;41.00
40872;BME280;26591;43.264;26.940;2022-07-09T08:21:03;98619.91;;;28.70;40.18
40872;BME280;26591;43.264;26.940;2022-07-09T08:23:29;98603.59;;;28.89;39.71
40872;BME280;26591;43.264;26.940;2022-07-09T08:25:55;98616.31;;;28.56;40.22
40872;BME280;26591;43.264;26.940;2022-07-09T08:28:31;98616.03;;;28.76;39.72
40872;BME280;26591;43.264;26.940;2022-07-09T08:30:56;98613.25;;;28.96;38.98
40872;BME280;26591;43.264;26.940;2022-07-09T08:33:22;98616.88;;;29.24;38.97
40872;BME280;26591;43.264;26.940;2022-07-09T08:35:47;98609.81;;;29.23;39.06
40872;BME280;26591;43.264;26.940;2022-07-09T08:38:12;98609.44;;;29.44;38.08
40872;BME280;26591;43.264;26.940;2022-07-09T08:40:38;98611.50;;;29.19;37.38
40872;BME280;26591;43.264;26.940;2022-07-09T08:43:04;98608.47;;;28.54;38.50
40872;BME280;26591;43.264;26.940;2022-07-09T08:45:30;98602.69;;;28.75;37.99
40872;BME280;26591;43.264;26.940;2022-07-09T08:47:57;98608.19;;;29.22;37.13
40872;BME280;26591;43.264;26.940;2022-07-09T08:50:23;98606.66;;;29.16;37.24
40872;BME280;26591;43.264;26.940;2022-07-09T08:52:51;98605.66;;;29.26;37.75
40872;BME280;26591;43.264;26.940;2022-07-09T08:55:17;98602.78;;;29.64;37.27
40872;BME280;26591;43.264;26.940;2022-07-09T08:57:42;98611.56;;;29.75;36.79
40872;BME280;26591;43.264;26.940;2022-07-09T09:00:08;98609.53;;;29.94;36.76
40872;BME280;26591;43.264;26.940;2022-07-09T09:02:37;98600.16;;;29.87;36.89
40872;BME280;26591;43.264;26.940;2022-07-09T09:05:14;98602.69;;;29.83;36.81
40872;BME280;26591;43.264;26.940;2022-07-09T09:07:40;98602.28;;;29.48;37.44
40872;BME280;26591;43.264;26.940;2022-07-09T09:10:06;98601.81;;;29.27;36.90
40872;BME280;26591;43.264;26.940;2022-07-09T09:12:32;98600.38;;;29.01;37.51
40872;BME280;26591;43.264;26.940;2022-07-09T09:15:05;98598.41;;;29.21;37.57
40872;BME280;26591;43.264;26.940;2022-07-09T09:17:32;98591.88;;;28.89;36.77
40872;BME280;26591;43.264;26.940;2022-07-09T09:19:57;98585.88;;;28.73;37.42
40872;BME280;26591;43.264;26.940;2022-07-09T09:22:23;98575.84;;;28.68;37.86
40872;BME280;26591;43.264;26.940;2022-07-09T09:24:49;98592.56;;;28.42;38.41
40872;BME280;26591;43.264;26.940;2022-07-09T09:27:49;98584.97;;;29.11;37.82
40872;BME280;26591;43.264;26.940;2022-07-09T09:30:15;98578.81;;;29.19;36.82
40872;BME280;26591;43.264;26.940;2022-07-09T09:32:40;98581.44;;;29.24;36.61
40872;BME280;26591;43.264;26.940;2022-07-09T09:35:06;98581.78;;;29.36;36.69
40872;BME280;26591;43.264;26.940;2022-07-09T09:37:32;98584.97;;;29.11;37.11
40872;BME280;26591;43.264;26.940;2022-07-09T09:39:57;98583.94;;;29.20;36.62
40872;BME280;26591;43.264;26.940;2022-07-09T09:42:25;98592.19;;;29.62;36.23
40872;BME280;26591;43.264;26.940;2022-07-09T09:44:51;98583.69;;;29.78;36.19
40872;BME280;26591;43.264;26.940;2022-07-09T09:47:20;98570.31;;;29.20;36.27
40872;BME280;26591;43.264;26.940;2022-07-09T09:49:48;98580.22;;;29.30;36.42
40872;BME280;26591;43.264;26.940;2022-07-09T09:52:14;98575.13;;;29.57;35.98
40872;BME280;26591;43.264;26.940;2022-07-09T09:54:40;98576.00;;;29.80;36.45
40872;BME280;26591;43.264;26.940;2022-07-09T09:57:11;98573.00;;;29.67;35.24
40872;BME280;26591;43.264;26.940;2022-07-09T09:59:43;98579.75;;;29.98;34.44
40872;BME280;26591;43.264;26.940;2022-07-09T10:02:12;98562.22;;;29.48;34.52
40872;BME280;26591;43.264;26.940;2022-07-09T10:04:43;98561.88;;;29.22;35.52
40872;BME280;26591;43.264;26.940;2022-07-09T10:07:13;98561.81;;;29.55;35.77
40872;BME280;26591;43.264;26.940;2022-07-09T10:09:39;98557.09;;;29.83;35.58
40872;BME280;26591;43.264;26.940;2022-07-09T10:12:05;98554.91;;;29.72;35.10
40872;BME280;26591;43.264;26.940;2022-07-09T10:14:33;98549.53;;;28.97;36.54
40872;BME280;26591;43.264;26.940;2022-07-09T10:17:14;98552.31;;;28.91;36.21
40872;BME280;26591;43.264;26.940;2022-07-09T10:20:03;98547.22;;;29.18;36.07
40872;BME280;26591;43.264;26.940;2022-07-09T10:22:42;98542.59;;;29.18;36.97
40872;BME280;26591;43.264;26.940;2022-07-09T10:25:22;98535.53;;;29.59;35.64
40872;BME280;26591;43.264;26.940;2022-07-09T10:27:49;98534.53;;;29.41;35.34
40872;BME280;26591;43.264;26.940;2022-07-09T10:30:31;98542.03;;;29.35;35.81
40872;BME280;26591;43.264;26.940;2022-07-09T10:33:09;98542.50;;;29.65;35.31
40872;BME280;26591;43.264;26.940;2022-07-09T10:35:54;98541.09;;;30.19;34.43
40872;BME280;26591;43.264;26.940;2022-07-09T10:38:34;98542.53;;;30.39;35.27
40872;BME280;26591;43.264;26.940;2022-07-09T10:41:01;98536.00;;;30.26;35.14
40872;BME280;26591;43.264;26.940;2022-07-09T10:43:51;98530.31;;;29.49;35.42
40872;BME280;26591;43.264;26.940;2022-07-09T10:46:17;98532.16;;;29.90;35.23
40872;BME280;26591;43.264;26.940;2022-07-09T10:48:47;98535.63;;;29.82;35.78
40872;BME280;26591;43.264;26.940;2022-07-09T10:51:21;98528.69;;;30.12;35.78
40872;BME280;26591;43.264;26.940;2022-07-09T10:53:47;98539.16;;;30.19;35.48
40872;BME280;26591;43.264;26.940;2022-07-09T10:56:20;98528.09;;;30.02;35.73
40872;BME280;26591;43.264;26.940;2022-07-09T10:58:47;98528.34;;;29.77;35.61
40872;BME280;26591;43.264;26.940;2022-07-09T11:01:19;98523.88;;;29.95;35.31
40872;BME280;26591;43.264;26.940;2022-07-09T11:03:49;98533.19;;;30.17;35.85
40872;BME280;26591;43.264;26.940;2022-07-09T11:06:16;98535.03;;;30.44;34.64
40872;BME280;26591;43.264;26.940;2022-07-09T11:08:41;98527.28;;;30.38;35.10
40872;BME280;26591;43.264;26.940;2022-07-09T11:11:07;98534.59;;;30.51;34.48
40872;BME280;26591;43.264;26.940;2022-07-09T11:13:32;98532.91;;;30.19;35.24
40872;BME280;26591;43.264;26.940;2022-07-09T11:15:59;98525.66;;;30.14;35.37
40872;BME280;26591;43.264;26.940;2022-07-09T11:18:27;98521.56;;;30.25;35.40
40872;BME280;26591;43.264;26.940;2022-07-09T11:20:53;98525.34;;;30.38;34.54
40872;BME280;26591;43.264;26.940;2022-07-09T11:23:18;98530.84;;;30.47;34.89
40872;BME280;26591;43.264;26.940;2022-07-09T11:25:44;98534.72;;;30.23;35.25
40872;BME280;26591;43.264;26.940;2022-07-09T11:28:25;98525.47;;;30.56;34.24
40872;BME280;26591;43.264;26.940;2022-07-09T11:31:05;98533.56;;;30.61;35.14
40872;BME280;26591;43.264;26.940;2022-07-09T11:33:31;98523.16;;;31.03;34.19
40872;BME280;26591;43.264;26.940;2022-07-09T11:36:17;98529.78;;;31.11;33.39
40872;BME280;26591;43.264;26.940;2022-07-09T11:38:50;98525.16;;;31.61;33.44
40872;BME280;26591;43.264;26.940;2022-07-09T11:41:16;98524.00;;;31.44;33.06
40872;BME280;26591;43.264;26.940;2022-07-09T11:43:51;98518.25;;;31.14;33.12
40872;BME280;26591;43.264;26.940;2022-07-09T11:46:20;98516.59;;;30.27;33.40
40872;BME280;26591;43.264;26.940;2022-07-09T11:48:53;98513.59;;;30.15;33.38
40872;BME280;26591;43.264;26.940;2022-07-09T11:51:31;98511.63;;;30.52;33.53
40872;BME280;26591;43.264;26.940;2022-07-09T11:53:58;98507.03;;;30.62;33.34
40872;BME280;26591;43.264;26.940;2022-07-09T11:56:24;98497.59;;;30.45;32.79
40872;BME280;26591;43.264;26.940;2022-07-09T11:58:50;98508.34;;;30.41;34.29
40872;BME280;26591;43.264;26.940;2022-07-09T12:01:16;98498.81;;;29.93;34.11
40872;BME280;26591;43.264;26.940;2022-07-09T12:03:48;98499.16;;;30.14;33.75
40872;BME280;26591;43.264;26.940;2022-07-09T12:06:14;98488.25;;;30.14;33.75
40872;BME280;26591;43.264;26.940;2022-07-09T12:08:40;98492.91;;;30.14;33.85
40872;BME280;26591;43.264;26.940;2022-07-09T12:11:06;98498.34;;;30.37;34.07
40872;BME280;26591;43.264;26.940;2022-07-09T12:13:32;98492.47;;;30.43;33.20
40872;BME280;26591;43.264;26.940;2022-07-09T12:15:58;98498.50;;;30.86;33.35
40872;BME280;26591;43.264;26.940;2022-07-09T12:18:24;98493.09;;;31.44;32.44
40872;BME280;26591;43.264;26.940;2022-07-09T12:20:49;98490.31;;;31.26;32.22
40872;BME280;26591;43.264;26.940;2022-07-09T12:23:15;98481.81;;;31.28;32.02
40872;BME280;26591;43.264;26.940;2022-07-09T12:25:41;98488.94;;;31.06;32.84
40872;BME280;26591;43.264;26.940;2022-07-09T12:28:06;98490.50;;;30.98;32.59
40872;BME280;26591;43.264;26.940;2022-07-09T12:30:32;98490.31;;;30.54;32.62
40872;BME280;26591;43.264;26.940;2022-07-09T12:32:58;98491.41;;;30.30;33.39
40872;BME280;26591;43.264;26.940;2022-07-09T12:35:26;98495.94;;;30.12;33.43
40872;BME280;26591;43.264;26.940;2022-07-09T12:37:52;98487.31;;;29.82;32.81
40872;BME280;26591;43.264;26.940;2022-07-09T12:40:20;98481.88;;;29.82;33.77
40872;BME280;26591;43.264;26.940;2022-07-09T12:42:45;98475.13;;;30.17;33.97
40872;BME280;26591;43.264;26.940;2022-07-09T12:45:11;98473.31;;;29.75;33.83
40872;BME280;26591;43.264;26.940;2022-07-09T12:47:37;98478.31;;;29.17;33.92
40872;BME280;26591;43.264;26.940;2022-07-09T12:50:04;98466.19;;;29.23;34.65
40872;BME280;26591;43.264;26.940;2022-07-09T12:52:31;98476.47;;;29.68;34.72
40872;BME280;26591;43.264;26.940;2022-07-09T12:55:01;98478.41;;;29.91;34.69